sensor_id;sensor_type;location;lat;lon;timestamp;P1;durP1;ratioP1;P2;durP2;ratioP2
1959;SDS011;980;43.794;11.212;2024-03-17T10:06:00;25.25;;;24.50;;
1959;SDS011;980;43.794;11.212;2024-03-17T10:08:25;24.50;;;23.00;;
1959;SDS011;980;43.794;11.212;2024-03-17T10:10:52;30.75;;;23.25;;
1959;SDS011;980;43.794;11.212;2024-03-17T10:13:18;22.50;;;22.25;;
1959;SDS011;980;43.794;11.212;2024-03-17T10:15:49;28.00;;;23.25;;
1959;SDS011;980;43.794;11.212;2024-03-17T10:18:21;25.75;;;24.50;;
1959;SDS011;980;43.794;11.212;2024-03-17T10:20:47;21.25;;;21.00;;
1959;SDS011;980;43.794;11.212;2024-03-17T10:23:17;27.50;;;26.00;;
1959;SDS011;980;43.794;11.212;2024-03-17T10:25:44;18.00;;;17.75;;
1959;SDS011;980;43.794;11.212;2024-03-17T10:28:10;23.75;;;22.50;;
1959;SDS011;980;43.794;11.212;2024-03-17T10:30:36;29.00;;;27.25;;
1959;SDS011;980;43.794;11.212;2024-03-17T10:33:02;24.25;;;23.25;;
1959;SDS011;980;43.794;11.212;2024-03-17T10:35:34;29.50;;;27.50;;
1959;SDS011;980;43.794;11.212;2024-03-17T10:40:25;34.25;;;31.50;;
1959;SDS011;980;43.794;11.212;2024-03-17T10:42:51;30.00;;;27.75;;
1959;SDS011;980;43.794;11.212;2024-03-17T10:45:17;29.00;;;26.25;;
1959;SDS011;980;43.794;11.212;2024-03-17T10:47:49;34.00;;;32.00;;
1959;SDS011;980;43.794;11.212;2024-03-17T10:50:21;29.75;;;26.25;;
1959;SDS011;980;43.794;11.212;2024-03-17T10:52:49;34.75;;;29.50;;
1959;SDS011;980;43.794;11.212;2024-03-17T10:55:24;105.25;;;94.25;;
1959;SDS011;980;43.794;11.212;2024-03-17T10:57:53;43.75;;;36.25;;
1959;SDS011;980;43.794;11.212;2024-03-17T11:00:21;46.25;;;38.25;;
1959;SDS011;980;43.794;11.212;2024-03-17T11:02:48;35.75;;;33.00;;
1959;SDS011;980;43.794;11.212;2024-03-17T11:07:38;32.25;;;31.50;;
1959;SDS011;980;43.794;11.212;2024-03-17T11:10:10;36.00;;;32.00;;
1959;SDS011;980;43.794;11.212;2024-03-17T11:12:43;26.25;;;22.75;;
1959;SDS011;980;43.794;11.212;2024-03-17T11:17:44;32.25;;;31.25;;
1959;SDS011;980;43.794;11.212;2024-03-17T11:20:17;34.25;;;31.00;;
1959;SDS011;980;43.794;11.212;2024-03-17T11:22:44;41.75;;;35.50;;
1959;SDS011;980;43.794;11.212;2024-03-17T11:27:50;36.50;;;32.75;;
1959;SDS011;980;43.794;11.212;2024-03-17T11:32:59;32.00;;;30.75;;
1959;SDS011;980;43.794;11.212;2024-03-17T11:35:25;43.50;;;36.25;;
1959;SDS011;980;43.794;11.212;2024-03-17T11:37:50;36.50;;;34.75;;
1959;SDS011;980;43.794;11.212;2024-03-17T11:40:24;34.00;;;33.00;;
1959;SDS011;980;43.794;11.212;2024-03-17T11:43:02;50.75;;;42.00;;
1959;SDS011;980;43.794;11.212;2024-03-17T11:45:28;39.50;;;35.00;;
1959;SDS011;980;43.794;11.212;2024-03-17T11:47:53;35.75;;;34.75;;
1959;SDS011;980;43.794;11.212;2024-03-17T11:50:18;38.50;;;34.00;;
1959;SDS011;980;43.794;11.212;2024-03-17T11:52:44;46.75;;;36.50;;
1959;SDS011;980;43.794;11.212;2024-03-17T11:55:16;40.75;;;34.75;;
1959;SDS011;980;43.794;11.212;2024-03-17T11:57:43;41.50;;;33.25;;
1959;SDS011;980;43.794;11.212;2024-03-17T12:00:20;38.75;;;33.75;;
1959;SDS011;980;43.794;11.212;2024-03-17T12:02:47;34.25;;;33.00;;
1959;SDS011;980;43.794;11.212;2024-03-17T12:05:13;36.75;;;33.00;;
1959;SDS011;980;43.794;11.212;2024-03-17T12:07:42;42.25;;;33.75;;
1959;SDS011;980;43.794;11.212;2024-03-17T12:10:09;46.75;;;37.00;;
1959;SDS011;980;43.794;11.212;2024-03-17T12:12:35;39.50;;;36.25;;
1959;SDS011;980;43.794;11.212;2024-03-17T12:15:00;34.00;;;31.75;;
1959;SDS011;980;43.794;11.212;2024-03-17T12:17:26;35.50;;;33.00;;
1959;SDS011;980;43.794;11.212;2024-03-17T12:19:51;38.50;;;33.75;;
1959;SDS011;980;43.794;11.212;2024-03-17T12:22:20;35.75;;;32.25;;
1959;SDS011;980;43.794;11.212;2024-03-17T12:24:50;38.75;;;35.00;;
1959;SDS011;980;43.794;11.212;2024-03-17T12:27:19;42.75;;;36.00;;
1959;SDS011;980;43.794;11.212;2024-03-17T12:29:46;39.00;;;34.50;;
1959;SDS011;980;43.794;11.212;2024-03-17T12:32:15;40.50;;;33.75;;
1959;SDS011;980;43.794;11.212;2024-03-17T12:34:41;39.75;;;33.75;;
1959;SDS011;980;43.794;11.212;2024-03-17T12:37:07;39.75;;;35.00;;
1959;SDS011;980;43.794;11.212;2024-03-17T12:39:33;47.25;;;37.25;;
1959;SDS011;980;43.794;11.212;2024-03-17T12:42:05;47.00;;;37.50;;
1959;SDS011;980;43.794;11.212;2024-03-17T12:44:32;45.50;;;38.50;;
1959;SDS011;980;43.794;11.212;2024-03-17T12:47:01;63.25;;;51.00;;
1959;SDS011;980;43.794;11.212;2024-03-17T12:49:27;61.50;;;50.00;;
1959;SDS011;980;43.794;11.212;2024-03-17T12:51:52;63.75;;;51.00;;
1959;SDS011;980;43.794;11.212;2024-03-17T12:54:25;53.00;;;43.00;;
1959;SDS011;980;43.794;11.212;2024-03-17T12:56:50;57.75;;;47.00;;
1959;SDS011;980;43.794;11.212;2024-03-17T12:59:41;44.00;;;37.75;;
1959;SDS011;980;43.794;11.212;2024-03-17T13:02:25;47.00;;;40.00;;
1959;SDS011;980;43.794;11.212;2024-03-17T13:05:06;44.25;;;36.00;;
1959;SDS011;980;43.794;11.212;2024-03-17T13:07:31;34.25;;;30.25;;
1959;SDS011;980;43.794;11.212;2024-03-17T13:09:56;37.50;;;34.75;;
1959;SDS011;980;43.794;11.212;2024-03-17T13:12:21;40.00;;;34.50;;
1959;SDS011;980;43.794;11.212;2024-03-17T13:14:47;44.00;;;37.25;;
1959;SDS011;980;43.794;11.212;2024-03-17T13:17:14;39.50;;;33.75;;
1959;SDS011;980;43.794;11.212;2024-03-17T13:19:41;36.25;;;34.00;;
1959;SDS011;980;43.794;11.212;2024-03-17T13:22:07;34.50;;;32.75;;
1959;SDS011;980;43.794;11.212;2024-03-17T13:24:34;31.00;;;31.00;;
1959;SDS011;980;43.794;11.212;2024-03-17T13:26:59;41.25;;;37.25;;
1959;SDS011;980;43.794;11.212;2024-03-17T13:29:30;45.50;;;39.25;;
1959;SDS011;980;43.794;11.212;2024-03-17T13:31:55;43.25;;;36.25;;
1959;SDS011;980;43.794;11.212;2024-03-17T13:34:20;42.25;;;35.50;;
1959;SDS011;980;43.794;11.212;2024-03-17T14:44:39;30.75;;;29.00;;
1959;SDS011;980;43.794;11.212;2024-03-17T14:47:04;36.00;;;30.25;;
1959;SDS011;980;43.794;11.212;2024-03-17T14:49:30;35.50;;;32.75;;
1959;SDS011;980;43.794;11.212;2024-03-17T14:51:55;29.75;;;28.75;;
1959;SDS011;980;43.794;11.212;2024-03-17T14:54:21;29.25;;;24.00;;
1959;SDS011;980;43.794;11.212;2024-03-17T14:56:47;21.25;;;21.00;;
1959;SDS011;980;43.794;11.212;2024-03-17T14:59:12;24.75;;;19.75;;
1959;SDS011;980;43.794;11.212;2024-03-17T15:01:37;32.25;;;27.00;;
1959;SDS011;980;43.794;11.212;2024-03-17T15:04:03;29.00;;;24.50;;
1959;SDS011;980;43.794;11.212;2024-03-17T15:06:28;29.25;;;27.25;;
1959;SDS011;980;43.794;11.212;2024-03-17T15:08:53;25.25;;;23.25;;
1959;SDS011;980;43.794;11.212;2024-03-17T15:11:18;22.50;;;21.75;;
1959;SDS011;980;43.794;11.212;2024-03-17T15:13:44;27.25;;;22.00;;
1959;SDS011;980;43.794;11.212;2024-03-17T15:16:10;22.75;;;22.75;;
1959;SDS011;980;43.794;11.212;2024-03-17T15:18:36;27.50;;;21.75;;
1959;SDS011;980;43.794;11.212;2024-03-17T15:21:03;24.00;;;20.25;;
1959;SDS011;980;43.794;11.212;2024-03-17T15:23:30;28.00;;;25.25;;
1959;SDS011;980;43.794;11.212;2024-03-17T15:25:59;24.00;;;22.75;;
1959;SDS011;980;43.794;11.212;2024-03-17T15:28:24;25.00;;;23.00;;
1959;SDS011;980;43.794;11.212;2024-03-17T15:30:49;23.50;;;22.00;;
1959;SDS011;980;43.794;11.212;2024-03-17T15:33:15;23.75;;;23.00;;
1959;SDS011;980;43.794;11.212;2024-03-17T15:35:40;19.50;;;19.25;;
1959;SDS011;980;43.794;11.212;2024-03-17T15:38:08;19.00;;;18.50;;
1959;SDS011;980;43.794;11.212;2024-03-17T15:40:34;21.00;;;20.00;;
1959;SDS011;980;43.794;11.212;2024-03-17T15:43:00;37.00;;;31.25;;
1959;SDS011;980;43.794;11.212;2024-03-17T15:45:25;25.25;;;22.25;;
1959;SDS011;980;43.794;11.212;2024-03-17T15:47:52;22.25;;;19.00;;
1959;SDS011;980;43.794;11.212;2024-03-17T15:50:18;23.25;;;19.50;;
1959;SDS011;980;43.794;11.212;2024-03-17T15:52:44;10.50;;;7.75;;
1959;SDS011;980;43.794;11.212;2024-03-17T15:55:09;21.25;;;19.50;;
1959;SDS011;980;43.794;11.212;2024-03-17T15:57:35;24.50;;;21.50;;
1959;SDS011;980;43.794;11.212;2024-03-17T16:00:00;24.25;;;23.50;;
1959;SDS011;980;43.794;11.212;2024-03-17T16:02:26;29.25;;;26.00;;
1959;SDS011;980;43.794;11.212;2024-03-17T16:04:51;26.25;;;25.00;;
1959;SDS011;980;43.794;11.212;2024-03-17T16:07:17;35.00;;;31.75;;
1959;SDS011;980;43.794;11.212;2024-03-17T16:09:43;36.50;;;32.00;;
1959;SDS011;980;43.794;11.212;2024-03-17T16:12:09;33.00;;;28.25;;
1959;SDS011;980;43.794;11.212;2024-03-17T16:14:34;31.50;;;28.75;;
1959;SDS011;980;43.794;11.212;2024-03-17T16:17:03;30.75;;;27.00;;
1959;SDS011;980;43.794;11.212;2024-03-17T16:19:32;26.00;;;25.00;;
1959;SDS011;980;43.794;11.212;2024-03-17T16:21:58;31.50;;;26.25;;
1959;SDS011;980;43.794;11.212;2024-03-17T16:24:23;27.50;;;26.25;;
1959;SDS011;980;43.794;11.212;2024-03-17T16:26:48;32.50;;;26.50;;
1959;SDS011;980;43.794;11.212;2024-03-17T16:29:14;31.00;;;26.75;;
1959;SDS011;980;43.794;11.212;2024-03-17T16:31:39;21.75;;;19.50;;
1959;SDS011;980;43.794;11.212;2024-03-17T16:34:06;47.00;;;40.25;;
1959;SDS011;980;43.794;11.212;2024-03-17T16:36:32;39.25;;;33.75;;
1959;SDS011;980;43.794;11.212;2024-03-17T16:38:58;21.75;;;18.00;;
1959;SDS011;980;43.794;11.212;2024-03-17T16:41:24;29.25;;;24.00;;
1959;SDS011;980;43.794;11.212;2024-03-17T16:44:00;20.75;;;18.50;;
1959;SDS011;980;43.794;11.212;2024-03-17T16:49:12;19.00;;;18.00;;
1959;SDS011;980;43.794;11.212;2024-03-17T16:51:38;17.00;;;17.00;;
1959;SDS011;980;43.794;11.212;2024-03-17T16:54:04;17.25;;;17.00;;
1959;SDS011;980;43.794;11.212;2024-03-17T16:56:30;16.50;;;14.25;;
1959;SDS011;980;43.794;11.212;2024-03-17T16:58:56;15.00;;;13.50;;
1959;SDS011;980;43.794;11.212;2024-03-17T17:01:21;20.25;;;19.25;;
1959;SDS011;980;43.794;11.212;2024-03-17T17:03:49;16.75;;;14.25;;
1959;SDS011;980;43.794;11.212;2024-03-17T17:06:14;17.25;;;15.00;;
1959;SDS011;980;43.794;11.212;2024-03-17T17:08:40;18.00;;;15.25;;
1959;SDS011;980;43.794;11.212;2024-03-17T17:11:05;21.25;;;17.75;;
1959;SDS011;980;43.794;11.212;2024-03-17T17:13:31;17.50;;;17.00;;
1959;SDS011;980;43.794;11.212;2024-03-17T17:15:57;20.00;;;17.00;;
1959;SDS011;980;43.794;11.212;2024-03-17T17:21:07;26.25;;;23.25;;
1959;SDS011;980;43.794;11.212;2024-03-17T17:23:32;59.25;;;45.75;;
1959;SDS011;980;43.794;11.212;2024-03-17T17:25:58;30.00;;;27.00;;
1959;SDS011;980;43.794;11.212;2024-03-17T17:28:23;20.75;;;19.00;;
1959;SDS011;980;43.794;11.212;2024-03-17T17:30:48;23.50;;;23.50;;
1959;SDS011;980;43.794;11.212;2024-03-17T17:33:14;18.75;;;16.75;;
1959;SDS011;980;43.794;11.212;2024-03-17T17:35:39;18.50;;;17.50;;
1959;SDS011;980;43.794;11.212;2024-03-17T17:38:04;18.25;;;17.00;;
1959;SDS011;980;43.794;11.212;2024-03-17T17:40:31;25.50;;;19.50;;
1959;SDS011;980;43.794;11.212;2024-03-17T17:42:56;20.00;;;18.75;;
1959;SDS011;980;43.794;11.212;2024-03-17T17:45:22;21.00;;;19.00;;
1959;SDS011;980;43.794;11.212;2024-03-17T17:47:47;29.25;;;26.25;;
1959;SDS011;980;43.794;11.212;2024-03-17T17:50:12;24.00;;;21.75;;
1959;SDS011;980;43.794;11.212;2024-03-17T17:52:37;27.00;;;23.50;;
1959;SDS011;980;43.794;11.212;2024-03-17T17:55:03;21.00;;;19.00;;
1959;SDS011;980;43.794;11.212;2024-03-17T17:57:29;25.00;;;22.00;;
1959;SDS011;980;43.794;11.212;2024-03-17T17:59:55;24.00;;;22.25;;
1959;SDS011;980;43.794;11.212;2024-03-17T18:02:20;25.50;;;23.00;;
1959;SDS011;980;43.794;11.212;2024-03-17T18:04:46;21.25;;;19.00;;
1959;SDS011;980;43.794;11.212;2024-03-17T18:07:11;26.75;;;24.00;;
1959;SDS011;980;43.794;11.212;2024-03-17T18:09:36;28.25;;;23.25;;
1959;SDS011;980;43.794;11.212;2024-03-17T18:12:01;29.50;;;26.75;;
1959;SDS011;980;43.794;11.212;2024-03-17T18:14:28;30.50;;;27.00;;
1959;SDS011;980;43.794;11.212;2024-03-17T18:16:54;28.75;;;27.00;;
1959;SDS011;980;43.794;11.212;2024-03-17T18:19:21;29.75;;;27.25;;
1959;SDS011;980;43.794;11.212;2024-03-17T18:21:46;32.25;;;32.25;;
1959;SDS011;980;43.794;11.212;2024-03-17T18:24:12;32.00;;;26.75;;
1959;SDS011;980;43.794;11.212;2024-03-17T18:26:37;27.75;;;26.00;;
1959;SDS011;980;43.794;11.212;2024-03-17T18:29:02;27.25;;;23.00;;
1959;SDS011;980;43.794;11.212;2024-03-17T18:31:27;31.75;;;24.75;;
1959;SDS011;980;43.794;11.212;2024-03-17T18:33:53;38.75;;;33.25;;
1959;SDS011;980;43.794;11.212;2024-03-17T18:36:20;79.67;;;60.67;;
1959;SDS011;980;43.794;11.212;2024-03-17T18:38:45;62.75;;;45.00;;
1959;SDS011;980;43.794;11.212;2024-03-17T18:41:12;45.00;;;39.75;;
1959;SDS011;980;43.794;11.212;2024-03-17T18:43:38;45.25;;;40.00;;
1959;SDS011;980;43.794;11.212;2024-03-17T18:46:12;39.00;;;36.25;;
1959;SDS011;980;43.794;11.212;2024-03-17T18:48:37;37.25;;;32.75;;
1959;SDS011;980;43.794;11.212;2024-03-17T18:51:03;32.75;;;28.75;;
1959;SDS011;980;43.794;11.212;2024-03-17T18:53:28;48.00;;;40.50;;
1959;SDS011;980;43.794;11.212;2024-03-17T18:56:01;32.25;;;29.00;;
1959;SDS011;980;43.794;11.212;2024-03-17T18:58:26;31.75;;;30.75;;
1959;SDS011;980;43.794;11.212;2024-03-17T19:00:54;33.75;;;31.50;;
1959;SDS011;980;43.794;11.212;2024-03-17T19:03:19;33.25;;;29.75;;
1959;SDS011;980;43.794;11.212;2024-03-17T19:05:48;27.50;;;27.25;;
1959;SDS011;980;43.794;11.212;2024-03-17T19:08:19;31.75;;;30.25;;
1959;SDS011;980;43.794;11.212;2024-03-17T19:10:49;30.50;;;24.00;;
1959;SDS011;980;43.794;11.212;2024-03-17T19:13:14;32.75;;;27.00;;
1959;SDS011;980;43.794;11.212;2024-03-17T19:15:40;26.00;;;26.00;;
1959;SDS011;980;43.794;11.212;2024-03-17T19:18:05;32.50;;;28.50;;
1959;SDS011;980;43.794;11.212;2024-03-17T19:20:30;34.25;;;25.50;;
1959;SDS011;980;43.794;11.212;2024-03-17T19:22:55;33.50;;;30.50;;
1959;SDS011;980;43.794;11.212;2024-03-17T19:25:21;35.75;;;29.50;;
1959;SDS011;980;43.794;11.212;2024-03-17T19:27:46;35.25;;;29.00;;
1959;SDS011;980;43.794;11.212;2024-03-17T19:30:11;30.50;;;30.25;;
1959;SDS011;980;43.794;11.212;2024-03-17T19:32:39;29.75;;;27.50;;
1959;SDS011;980;43.794;11.212;2024-03-17T19:35:05;37.50;;;32.75;;
1959;SDS011;980;43.794;11.212;2024-03-17T19:37:30;38.50;;;32.25;;
1959;SDS011;980;43.794;11.212;2024-03-17T19:39:55;32.75;;;31.25;;
1959;SDS011;980;43.794;11.212;2024-03-17T19:42:21;38.75;;;33.25;;
1959;SDS011;980;43.794;11.212;2024-03-17T19:44:47;34.00;;;30.25;;
1959;SDS011;980;43.794;11.212;2024-03-17T19:47:13;32.00;;;30.50;;
1959;SDS011;980;43.794;11.212;2024-03-17T19:49:39;38.50;;;34.25;;
1959;SDS011;980;43.794;11.212;2024-03-17T19:52:05;33.75;;;31.25;;
1959;SDS011;980;43.794;11.212;2024-03-17T19:54:30;19.00;;;17.25;;
1959;SDS011;980;43.794;11.212;2024-03-17T19:56:55;33.75;;;29.25;;
1959;SDS011;980;43.794;11.212;2024-03-17T19:59:20;32.25;;;29.25;;
1959;SDS011;980;43.794;11.212;2024-03-17T20:01:46;30.25;;;29.00;;
1959;SDS011;980;43.794;11.212;2024-03-17T20:04:11;35.25;;;30.25;;
1959;SDS011;980;43.794;11.212;2024-03-17T20:06:36;31.00;;;27.00;;
1959;SDS011;980;43.794;11.212;2024-03-17T20:09:02;33.50;;;32.00;;
1959;SDS011;980;43.794;11.212;2024-03-17T20:11:28;38.25;;;36.00;;
1959;SDS011;980;43.794;11.212;2024-03-17T20:13:53;32.50;;;30.00;;
1959;SDS011;980;43.794;11.212;2024-03-17T20:16:19;38.00;;;34.00;;
1959;SDS011;980;43.794;11.212;2024-03-17T20:18:46;33.75;;;30.25;;
1959;SDS011;980;43.794;11.212;2024-03-17T20:21:11;35.25;;;30.25;;
1959;SDS011;980;43.794;11.212;2024-03-17T20:23:37;37.50;;;32.00;;
1959;SDS011;980;43.794;11.212;2024-03-17T20:26:02;34.00;;;33.25;;
1959;SDS011;980;43.794;11.212;2024-03-17T20:28:27;44.00;;;37.00;;
1959;SDS011;980;43.794;11.212;2024-03-17T20:30:52;40.50;;;36.00;;
1959;SDS011;980;43.794;11.212;2024-03-17T20:33:18;46.00;;;39.00;;
1959;SDS011;980;43.794;11.212;2024-03-17T20:35:43;41.50;;;38.75;;
1959;SDS011;980;43.794;11.212;2024-03-17T20:38:08;39.00;;;35.50;;
1959;SDS011;980;43.794;11.212;2024-03-17T20:40:35;40.50;;;37.00;;
1959;SDS011;980;43.794;11.212;2024-03-17T20:43:00;42.75;;;40.25;;
1959;SDS011;980;43.794;11.212;2024-03-17T20:45:25;38.50;;;36.00;;
1959;SDS011;980;43.794;11.212;2024-03-17T20:47:53;46.50;;;39.25;;
1959;SDS011;980;43.794;11.212;2024-03-17T20:50:20;44.25;;;38.75;;
1959;SDS011;980;43.794;11.212;2024-03-17T20:52:46;52.00;;;43.50;;
1959;SDS011;980;43.794;11.212;2024-03-17T20:55:11;47.50;;;39.50;;
1959;SDS011;980;43.794;11.212;2024-03-17T20:57:41;42.00;;;37.25;;
1959;SDS011;980;43.794;11.212;2024-03-17T21:00:07;49.25;;;41.00;;
1959;SDS011;980;43.794;11.212;2024-03-17T21:02:44;46.75;;;40.50;;
1959;SDS011;980;43.794;11.212;2024-03-17T21:05:10;49.00;;;41.00;;
1959;SDS011;980;43.794;11.212;2024-03-17T21:07:35;46.25;;;39.00;;
1959;SDS011;980;43.794;11.212;2024-03-17T21:10:01;50.50;;;40.00;;
1959;SDS011;980;43.794;11.212;2024-03-17T21:12:27;51.00;;;41.75;;
1959;SDS011;980;43.794;11.212;2024-03-17T21:14:52;52.00;;;43.75;;
1959;SDS011;980;43.794;11.212;2024-03-17T21:17:18;49.00;;;39.50;;
1959;SDS011;980;43.794;11.212;2024-03-17T21:19:43;50.50;;;42.25;;
1959;SDS011;980;43.794;11.212;2024-03-17T21:22:09;46.00;;;38.25;;
1959;SDS011;980;43.794;11.212;2024-03-17T21:24:34;54.50;;;44.25;;
1959;SDS011;980;43.794;11.212;2024-03-17T21:27:00;64.33;;;52.67;;
1959;SDS011;980;43.794;11.212;2024-03-17T21:29:26;48.75;;;40.00;;
1959;SDS011;980;43.794;11.212;2024-03-17T21:31:51;50.75;;;42.25;;
1959;SDS011;980;43.794;11.212;2024-03-17T21:34:17;47.00;;;39.25;;
1959;SDS011;980;43.794;11.212;2024-03-17T21:36:42;49.50;;;40.00;;
1959;SDS011;980;43.794;11.212;2024-03-17T21:39:08;50.00;;;41.75;;
1959;SDS011;980;43.794;11.212;2024-03-17T21:41:33;48.75;;;39.50;;
1959;SDS011;980;43.794;11.212;2024-03-17T21:43:59;51.75;;;40.50;;
1959;SDS011;980;43.794;11.212;2024-03-17T21:46:24;45.00;;;39.25;;
1959;SDS011;980;43.794;11.212;2024-03-17T21:48:52;49.75;;;41.50;;
1959;SDS011;980;43.794;11.212;2024-03-17T21:51:17;50.00;;;40.00;;
1959;SDS011;980;43.794;11.212;2024-03-17T21:53:42;43.25;;;35.75;;
1959;SDS011;980;43.794;11.212;2024-03-17T21:56:08;43.50;;;38.75;;
1959;SDS011;980;43.794;11.212;2024-03-17T21:58:33;43.75;;;38.50;;
1959;SDS011;980;43.794;11.212;2024-03-17T22:01:04;39.25;;;36.25;;
1959;SDS011;980;43.794;11.212;2024-03-17T22:03:30;50.00;;;39.00;;
1959;SDS011;980;43.794;11.212;2024-03-17T22:05:56;47.00;;;38.75;;
1959;SDS011;980;43.794;11.212;2024-03-17T22:08:23;42.75;;;37.00;;
1959;SDS011;980;43.794;11.212;2024-03-17T22:10:52;42.25;;;36.50;;
1959;SDS011;980;43.794;11.212;2024-03-17T22:13:20;41.00;;;37.00;;
1959;SDS011;980;43.794;11.212;2024-03-17T22:15:51;50.75;;;39.75;;
1959;SDS011;980;43.794;11.212;2024-03-17T22:18:16;43.25;;;37.25;;
1959;SDS011;980;43.794;11.212;2024-03-17T22:20:42;42.75;;;38.00;;
1959;SDS011;980;43.794;11.212;2024-03-17T22:23:08;39.25;;;35.25;;
1959;SDS011;980;43.794;11.212;2024-03-17T22:25:33;47.50;;;37.50;;
1959;SDS011;980;43.794;11.212;2024-03-17T22:27:58;41.50;;;34.25;;
1959;SDS011;980;43.794;11.212;2024-03-17T22:30:23;40.75;;;35.50;;
1959;SDS011;980;43.794;11.212;2024-03-17T22:32:49;37.25;;;35.50;;
1959;SDS011;980;43.794;11.212;2024-03-17T22:35:15;39.75;;;35.50;;
1959;SDS011;980;43.794;11.212;2024-03-17T22:37:41;37.25;;;35.75;;
1959;SDS011;980;43.794;11.212;2024-03-17T22:40:06;41.25;;;36.50;;
1959;SDS011;980;43.794;11.212;2024-03-17T22:42:32;37.00;;;33.25;;
1959;SDS011;980;43.794;11.212;2024-03-17T22:44:57;39.25;;;37.00;;
1959;SDS011;980;43.794;11.212;2024-03-17T22:47:22;39.50;;;34.75;;
1959;SDS011;980;43.794;11.212;2024-03-17T22:49:48;38.00;;;33.25;;
1959;SDS011;980;43.794;11.212;2024-03-17T22:52:13;41.75;;;36.50;;
1959;SDS011;980;43.794;11.212;2024-03-17T22:54:39;41.50;;;35.50;;
1959;SDS011;980;43.794;11.212;2024-03-17T22:57:04;43.75;;;36.25;;
1959;SDS011;980;43.794;11.212;2024-03-17T22:59:29;37.50;;;33.25;;
1959;SDS011;980;43.794;11.212;2024-03-17T23:01:54;44.00;;;39.25;;
1959;SDS011;980;43.794;11.212;2024-03-17T23:04:20;37.50;;;34.25;;
1959;SDS011;980;43.794;11.212;2024-03-17T23:06:47;36.75;;;35.75;;
1959;SDS011;980;43.794;11.212;2024-03-17T23:09:12;39.75;;;36.00;;
1959;SDS011;980;43.794;11.212;2024-03-17T23:11:40;38.00;;;35.25;;
1959;SDS011;980;43.794;11.212;2024-03-17T23:14:05;40.50;;;32.25;;
